Time;durP1;ratioP1;P1;durP2;ratioP2;P2;SDS_P1;SDS_P2;PMS_P1;PMS_P2;Temp;Humidity;BMP_temperature;BMP_pressure;BME280_temperature;BME280_humidity;BME280_pressure;Samples;Min_cycle;Max_cycle;Signal;HPM_P1;HPM_P2
2021/11/28 07:56:44;;;;;;;;;2.00;2.00;;;;;;;;5217333;27;77644;-73
2021/11/28 07:59:10;;;;;;;;;1.00;1.00;;;;;;;;5200226;27;20644;-72
2021/11/28 08:01:35;;;;;;;;;0.75;0.25;;;;;;;;5200499;27;11503;-72
2021/11/28 08:04:00;;;;;;;;;2.00;1.00;;;;;;;;5200506;27;11294;-73
2021/11/28 08:06:26;;;;;;;;;6.00;6.00;;;;;;;;5200442;27;12456;-72
2021/11/28 08:08:51;;;;;;;;;3.00;3.00;;;;;;;;5199596;27;8835;-74
2021/11/28 08:11:16;;;;;;;;;3.25;1.75;;;;;;;;5200129;27;8784;-75
2021/11/28 08:13:42;;;;;;;;;3.00;2.25;;;;;;;;5200139;27;10490;-74
2021/11/28 08:16:07;;;;;;;;;2.25;2.25;;;;;;;;5199846;27;9608;-75
2021/11/28 08:18:32;;;;;;;;;2.00;2.00;;;;;;;;5200244;27;8795;-73
2021/11/28 08:20:58;;;;;;;;;2.25;2.00;;;;;;;;5200139;27;8780;-75
2021/11/28 08:23:25;;;;;;;;;2.00;2.00;;;;;;;;5180670;27;8814;-72
2021/11/28 08:25:50;;;;;;;;;2.75;2.00;;;;;;;;5162713;27;8813;-73
2021/11/28 08:28:15;;;;;;;;;3.75;2.00;;;;;;;;5179069;27;11594;-72
2021/11/28 08:30:41;;;;;;;;;5.00;2.00;;;;;;;;5189614;27;9597;-73
2021/11/28 08:33:06;;;;;;;;;3.00;3.00;;;;;;;;5191059;27;8964;-72
2021/11/28 08:35:33;;;;;;;;;3.00;2.00;;;;;;;;5197660;27;8954;-71
2021/11/28 08:37:59;;;;;;;;;4.00;2.25;;;;;;;;5198260;27;8800;-72
2021/11/28 08:40:25;;;;;;;;;3.00;2.50;;;;;;;;5197703;27;11478;-72
2021/11/28 08:42:50;;;;;;;;;2.00;2.00;;;;;;;;5197943;27;12640;-74
2021/11/28 08:45:16;;;;;;;;;8.75;4.50;;;;;;;;5197815;27;11774;-75
2021/11/28 08:47:41;;;;;;;;;8.00;6.00;;;;;;;;5199187;27;11319;-72
2021/11/28 08:50:07;;;;;;;;;4.00;3.00;;;;;;;;5178872;27;12852;-73
2021/11/28 08:52:33;;;;;;;;;3.50;1.00;;;;;;;;5172978;27;8970;-74
2021/11/28 08:54:58;;;;;;;;;3.75;2.00;;;;;;;;5194572;27;11439;-75
2021/11/28 08:57:24;;;;;;;;;2.00;2.00;;;;;;;;5199513;27;9518;-74
2021/11/28 08:59:50;;;;;;;;;1.00;1.00;;;;;;;;5200139;27;8784;-71
2021/11/28 09:02:17;;;;;;;;;2.50;1.50;;;;;;;;5199144;27;8821;-72
2021/11/28 09:04:42;;;;;;;;;3.25;0.75;;;;;;;;5195881;27;12191;-72
2021/11/28 09:07:07;;;;;;;;;4.25;0.75;;;;;;;;5176309;27;11501;-71
2021/11/28 09:09:34;;;;;;;;;1.25;1.00;;;;;;;;5127445;27;10337;-73
2021/11/28 09:11:59;;;;;;;;;1.00;1.00;;;;;;;;5136299;27;11382;-72
2021/11/28 09:14:26;;;;;;;;;3.00;1.00;;;;;;;;5143305;27;11421;-72
2021/11/28 09:16:51;;;;;;;;;0.75;0.00;;;;;;;;5142933;27;8789;-73
2021/11/28 09:19:33;;;;;;;;;0.00;0.00;;;;;;;;5142460;27;11418;-72
2021/11/28 09:21:59;;;;;;;;;0.00;0.00;;;;;;;;5144105;27;8785;-73
2021/11/28 09:24:37;;;;;;;;;1.00;0.00;;;;;;;;5139703;27;11489;-74
2021/11/28 09:27:07;;;;;;;;;0.00;0.00;;;;;;;;5142466;27;11403;-72
2021/11/28 09:29:40;;;;;;;;;2.25;1.00;;;;;;;;5142603;27;12275;-74
2021/11/28 09:32:06;;;;;;;;;2.50;0.25;;;;;;;;5143078;27;11439;-71
2021/11/28 09:34:32;;;;;;;;;2.50;0.00;;;;;;;;5124022;27;11442;-71
2021/11/28 09:36:57;;;;;;;;;0.00;0.00;;;;;;;;5142430;27;8790;-72
2021/11/28 09:39:23;;;;;;;;;2.00;0.00;;;;;;;;5142899;27;8997;-70
2021/11/28 09:41:50;;;;;;;;;0.25;0.25;;;;;;;;5142703;27;8781;-72
2021/11/28 09:44:16;;;;;;;;;0.00;0.00;;;;;;;;5084599;27;12139;-73
2021/11/28 09:46:43;;;;;;;;;2.00;0.00;;;;;;;;5121735;28;11378;-72
2021/11/28 09:49:09;;;;;;;;;1.50;0.25;;;;;;;;5122499;28;8758;-73
2021/11/28 09:51:34;;;;;;;;;1.00;1.00;;;;;;;;5121453;28;11346;-73
2021/11/28 09:54:03;;;;;;;;;2.00;0.00;;;;;;;;5120743;28;10758;-73
2021/11/28 09:56:28;;;;;;;;;1.00;1.00;;;;;;;;5101373;28;8915;-73
2021/11/28 09:58:54;;;;;;;;;0.75;0.75;;;;;;;;5121805;28;11354;-75
2021/11/28 10:01:20;;;;;;;;;1.75;0.00;;;;;;;;5121576;28;12006;-73
2021/11/28 10:03:45;;;;;;;;;0.25;0.00;;;;;;;;5121170;28;11404;-75
2021/11/28 10:06:11;;;;;;;;;2.00;0.00;;;;;;;;5121360;28;9561;-71
2021/11/28 10:08:37;;;;;;;;;0.00;0.00;;;;;;;;5102598;28;8801;-72
2021/11/28 10:11:17;;;;;;;;;1.00;1.00;;;;;;;;5122887;28;8920;-74
2021/11/28 10:13:43;;;;;;;;;1.00;0.75;;;;;;;;5122028;28;11362;-73
2021/11/28 10:16:09;;;;;;;;;1.00;1.00;;;;;;;;5120864;28;11463;-75
2021/11/28 10:18:36;;;;;;;;;1.00;1.00;;;;;;;;5120720;27;11450;-72
2021/11/28 10:21:01;;;;;;;;;0.75;0.00;;;;;;;;5121848;28;8786;-77
2021/11/28 10:23:26;;;;;;;;;1.00;0.00;;;;;;;;5121504;28;11364;-75
2021/11/28 10:26:11;;;;;;;;;1.50;0.00;;;;;;;;5120711;28;8798;-76
2021/11/28 10:28:56;;;;;;;;;1.00;0.00;;;;;;;;5081623;28;12595;-78
2021/11/28 10:31:22;;;;;;;;;0.00;0.00;;;;;;;;5039086;28;16343;-77
2021/11/28 10:33:47;;;;;;;;;1.00;0.00;;;;;;;;5100504;28;11540;-78
2021/11/28 10:36:12;;;;;;;;;0.00;0.00;;;;;;;;5100497;28;8892;-77
2021/11/28 10:38:40;;;;;;;;;2.00;1.00;;;;;;;;5118377;28;8796;-76
2021/11/28 10:41:24;;;;;;;;;0.00;0.00;;;;;;;;5102342;28;9310;-78
2021/11/28 10:43:50;;;;;;;;;0.00;0.00;;;;;;;;5102554;28;11413;-76
2021/11/28 10:46:32;;;;;;;;;1.00;0.00;;;;;;;;5121189;28;11449;-79
2021/11/28 10:49:05;;;;;;;;;0.00;0.00;;;;;;;;5100402;28;9579;-79
2021/11/28 10:51:32;;;;;;;;;0.00;0.00;;;;;;;;5100310;28;11506;-78
2021/11/28 10:53:57;;;;;;;;;0.25;0.00;;;;;;;;5104167;28;12291;-75
2021/11/28 10:56:22;;;;;;;;;0.00;0.00;;;;;;;;5119947;28;11459;-77
2021/11/28 10:58:48;;;;;;;;;0.75;0.75;;;;;;;;5121126;28;8804;-76
2021/11/28 11:01:13;;;;;;;;;0.50;0.50;;;;;;;;5120483;28;9805;-76
2021/11/28 11:03:47;;;;;;;;;0.00;0.00;;;;;;;;5120410;28;9576;-78
2021/11/28 11:06:16;;;;;;;;;0.50;0.25;;;;;;;;5120584;28;8896;-74
2021/11/28 11:08:41;;;;;;;;;0.00;0.00;;;;;;;;5121053;28;11493;-76
2021/11/28 11:11:08;;;;;;;;;1.00;1.00;;;;;;;;5120964;28;11404;-78
2021/11/28 11:13:34;;;;;;;;;0.00;0.00;;;;;;;;5121151;28;8803;-77
2021/11/28 11:16:02;;;;;;;;;0.50;0.50;;;;;;;;5120563;28;11423;-77
2021/11/28 11:18:27;;;;;;;;;0.50;0.50;;;;;;;;5102647;28;11786;-80
2021/11/28 11:21:01;;;;;;;;;2.00;0.00;;;;;;;;5121344;28;11474;-77
2021/11/28 11:23:34;;;;;;;;;0.75;0.75;;;;;;;;5121701;28;11700;-78
2021/11/28 11:26:12;;;;;;;;;0.00;0.00;;;;;;;;5095632;28;14281;-77
2021/11/28 11:28:57;;;;;;;;;0.00;0.00;;;;;;;;5100905;28;11524;-76
2021/11/28 11:31:23;;;;;;;;;0.00;0.00;;;;;;;;5100691;28;11374;-78
2021/11/28 11:33:48;;;;;;;;;0.75;0.00;;;;;;;;5100059;28;11451;-76
2021/11/28 11:36:13;;;;;;;;;0.00;0.00;;;;;;;;5099723;28;8833;-77
2021/11/28 11:38:38;;;;;;;;;0.50;0.00;;;;;;;;5100306;28;8786;-77
2021/11/28 11:41:04;;;;;;;;;1.00;1.00;;;;;;;;5099694;28;8795;-78
2021/11/28 11:43:31;;;;;;;;;0.00;0.00;;;;;;;;5100943;28;10679;-88
2021/11/28 11:45:56;;;;;;;;;0.00;0.00;;;;;;;;5101740;28;8973;-91
2021/11/28 11:48:24;;;;;;;;;0.00;0.00;;;;;;;;5103327;28;12150;-81
2021/11/28 11:50:49;;;;;;;;;0.00;0.00;;;;;;;;5119979;28;8796;-89
2021/11/28 11:53:14;;;;;;;;;0.00;0.00;;;;;;;;5119896;28;11614;-80
2021/11/28 11:55:41;;;;;;;;;0.00;0.00;;;;;;;;5119784;28;8827;-85
2021/11/28 11:58:24;;;;;;;;;0.00;0.00;;;;;;;;5120960;28;8899;-91
2021/11/28 12:00:59;;;;;;;;;0.00;0.00;;;;;;;;5120465;28;11525;-89
2021/11/28 12:03:24;;;;;;;;;0.00;0.00;;;;;;;;5121141;28;11409;-88
2021/11/28 12:05:50;;;;;;;;;0.00;0.00;;;;;;;;5119265;28;11521;-83
2021/11/28 12:08:16;;;;;;;;;0.00;0.00;;;;;;;;5118126;28;8764;-80
2021/11/28 12:10:42;;;;;;;;;0.00;0.00;;;;;;;;5118054;28;12198;-83
2021/11/28 12:13:09;;;;;;;;;0.00;0.00;;;;;;;;5120126;28;8749;-84
2021/11/28 12:15:49;;;;;;;;;0.00;0.00;;;;;;;;5118981;28;12785;-80
2021/11/28 12:18:33;;;;;;;;;0.00;0.00;;;;;;;;5119384;28;12158;-80
2021/11/28 12:21:09;;;;;;;;;0.00;0.00;;;;;;;;5118677;28;12192;-80
2021/11/28 12:23:54;;;;;;;;;0.00;0.00;;;;;;;;5101957;28;11376;-82
2021/11/28 12:26:29;;;;;;;;;1.00;0.00;;;;;;;;5120685;28;11442;-81
2021/11/28 12:28:57;;;;;;;;;0.00;0.00;;;;;;;;5101804;28;11412;-80
2021/11/28 12:31:27;;;;;;;;;0.00;0.00;;;;;;;;5119813;28;12398;-80
2021/11/28 12:33:52;;;;;;;;;0.00;0.00;;;;;;;;5119692;28;11392;-81
2021/11/28 12:36:38;;;;;;;;;0.00;0.00;;;;;;;;5119616;28;11427;-81
2021/11/28 12:39:03;;;;;;;;;0.25;0.25;;;;;;;;5120030;28;9465;-81
2021/11/28 12:41:51;;;;;;;;;0.00;0.00;;;;;;;;5119813;27;11466;-81
2021/11/28 12:44:19;;;;;;;;;0.00;0.00;;;;;;;;5123738;28;9004;-81
2021/11/28 12:46:47;;;;;;;;;0.00;0.00;;;;;;;;5123800;28;12127;-80
2021/11/28 12:49:24;;;;;;;;;1.00;0.00;;;;;;;;5123176;28;12155;-81
2021/11/28 12:51:50;;;;;;;;;1.25;1.25;;;;;;;;5123911;28;11386;-80
2021/11/28 12:54:25;;;;;;;;;4.00;0.00;;;;;;;;5123080;28;11382;-80
2021/11/28 12:57:10;;;;;;;;;0.00;0.00;;;;;;;;5123229;28;11414;-82
2021/11/28 12:59:35;;;;;;;;;0.00;0.00;;;;;;;;5123549;28;11478;-80
2021/11/28 13:02:01;;;;;;;;;1.00;1.00;;;;;;;;5123726;28;11404;-79
2021/11/28 13:04:39;;;;;;;;;0.75;0.00;;;;;;;;5123207;28;8800;-80
2021/11/28 13:07:23;;;;;;;;;0.75;0.00;;;;;;;;5123632;28;11429;-80
2021/11/28 13:09:49;;;;;;;;;0.00;0.00;;;;;;;;5122774;28;11381;-79
2021/11/28 13:12:16;;;;;;;;;2.50;2.00;;;;;;;;5123642;28;11368;-79
2021/11/28 13:14:45;;;;;;;;;1.00;1.00;;;;;;;;5103908;28;12507;-79
2021/11/28 13:17:11;;;;;;;;;1.00;1.00;;;;;;;;5122980;28;12102;-79
2021/11/28 13:19:38;;;;;;;;;0.75;0.75;;;;;;;;5123189;28;12163;-80
2021/11/28 13:22:14;;;;;;;;;0.00;0.00;;;;;;;;5122025;28;12187;-80
2021/11/28 13:24:40;;;;;;;;;1.00;1.00;;;;;;;;5123029;28;11631;-79
2021/11/28 13:27:05;;;;;;;;;4.00;0.00;;;;;;;;5122500;28;11421;-79
2021/11/28 13:29:32;;;;;;;;;2.75;1.00;;;;;;;;5122904;28;8776;-80
2021/11/28 13:31:59;;;;;;;;;2.00;1.00;;;;;;;;5122034;28;10928;-79
2021/11/28 13:34:31;;;;;;;;;0.00;0.00;;;;;;;;5123116;28;11373;-79
2021/11/28 13:36:57;;;;;;;;;1.00;1.00;;;;;;;;5122243;28;11397;-79
2021/11/28 13:39:24;;;;;;;;;0.75;0.75;;;;;;;;5121677;28;11400;-79
2021/11/28 13:41:51;;;;;;;;;1.00;1.00;;;;;;;;5122615;28;11694;-78
2021/11/28 13:44:19;;;;;;;;;1.50;0.00;;;;;;;;5122014;28;12496;-79
2021/11/28 13:46:49;;;;;;;;;1.00;1.00;;;;;;;;5122553;28;12279;-78
2021/11/28 13:49:17;;;;;;;;;1.00;0.50;;;;;;;;5122604;28;11413;-79
2021/11/28 13:51:43;;;;;;;;;1.00;1.00;;;;;;;;5121804;28;11399;-79
2021/11/28 13:54:13;;;;;;;;;0.00;0.00;;;;;;;;5122235;27;12145;-83
2021/11/28 13:56:44;;;;;;;;;0.75;0.75;;;;;;;;5122441;28;11411;-84
2021/11/28 13:59:21;;;;;;;;;1.00;0.75;;;;;;;;5122910;28;12409;-84
2021/11/28 14:02:03;;;;;;;;;0.00;0.00;;;;;;;;5122453;28;11375;-85
2021/11/28 14:04:29;;;;;;;;;0.00;0.00;;;;;;;;5121828;28;12103;-84
2021/11/28 14:06:54;;;;;;;;;0.00;0.00;;;;;;;;5123039;28;12126;-84
2021/11/28 14:09:21;;;;;;;;;1.00;1.00;;;;;;;;5124000;28;11482;-84
2021/11/28 14:11:50;;;;;;;;;1.00;1.00;;;;;;;;5122547;28;9829;-85
2021/11/28 14:14:18;;;;;;;;;1.00;1.00;;;;;;;;5122399;28;12113;-83
2021/11/28 14:16:51;;;;;;;;;3.50;0.00;;;;;;;;5121984;28;12142;-85
2021/11/28 14:19:30;;;;;;;;;0.75;0.75;;;;;;;;5121750;28;11396;-83
2021/11/28 14:21:56;;;;;;;;;1.00;1.00;;;;;;;;5104944;28;12118;-84
2021/11/28 14:24:34;;;;;;;;;1.00;0.00;;;;;;;;5123050;28;11572;-84
2021/11/28 14:27:18;;;;;;;;;1.00;1.00;;;;;;;;5118012;28;12122;-85
2021/11/28 14:29:44;;;;;;;;;0.25;0.25;;;;;;;;5123266;28;11405;-85
2021/11/28 14:32:10;;;;;;;;;2.00;0.00;;;;;;;;5122413;28;13041;-85
2021/11/28 14:34:36;;;;;;;;;0.75;0.75;;;;;;;;5122430;28;11766;-80
2021/11/28 14:37:18;;;;;;;;;1.00;0.25;;;;;;;;5122881;28;11317;-85
2021/11/28 14:39:44;;;;;;;;;0.25;0.25;;;;;;;;5122736;28;10410;-86
2021/11/28 14:42:20;;;;;;;;;0.00;0.00;;;;;;;;5103735;28;12015;-85
2021/11/28 14:44:47;;;;;;;;;0.00;0.00;;;;;;;;5122882;28;11438;-86
2021/11/28 14:47:26;;;;;;;;;4.00;1.00;;;;;;;;5123161;28;11389;-85
2021/11/28 14:49:54;;;;;;;;;1.75;1.00;;;;;;;;5124114;28;12479;-85
2021/11/28 14:52:27;;;;;;;;;1.75;0.50;;;;;;;;5122000;28;11420;-85
2021/11/28 14:54:53;;;;;;;;;2.00;1.00;;;;;;;;5121883;28;11423;-85
2021/11/28 14:57:23;;;;;;;;;1.00;1.00;;;;;;;;5121788;28;11494;-84
2021/11/28 14:59:57;;;;;;;;;1.50;0.50;;;;;;;;5122111;28;9835;-85
2021/11/28 15:02:29;;;;;;;;;1.00;1.00;;;;;;;;5122086;28;12164;-85
2021/11/28 15:05:02;;;;;;;;;3.00;1.50;;;;;;;;5121695;28;11448;-85
2021/11/28 15:07:30;;;;;;;;;3.50;1.00;;;;;;;;5103630;28;11726;-85
2021/11/28 15:10:01;;;;;;;;;1.00;1.00;;;;;;;;5122539;28;12159;-84
2021/11/28 15:12:30;;;;;;;;;1.25;0.75;;;;;;;;5122214;28;11437;-85
2021/11/28 15:15:15;;;;;;;;;1.50;1.00;;;;;;;;5122369;28;11713;-84
2021/11/28 15:17:41;;;;;;;;;1.50;1.00;;;;;;;;5129020;28;11361;-84
2021/11/28 15:20:10;;;;;;;;;2.50;2.50;;;;;;;;5125682;28;11528;-84
2021/11/28 15:22:36;;;;;;;;;3.50;2.00;;;;;;;;5124921;28;11663;-84
2021/11/28 15:25:02;;;;;;;;;2.00;2.00;;;;;;;;5121525;28;11439;-84
2021/11/28 15:27:28;;;;;;;;;1.00;1.00;;;;;;;;5121721;28;8781;-85
2021/11/28 15:29:54;;;;;;;;;0.00;0.00;;;;;;;;5121134;28;8772;-84
2021/11/28 15:32:20;;;;;;;;;1.00;1.00;;;;;;;;5121518;28;10210;-85
2021/11/28 15:34:46;;;;;;;;;1.75;1.75;;;;;;;;5121483;28;11399;-83
2021/11/28 15:37:12;;;;;;;;;2.00;2.00;;;;;;;;5121762;28;11432;-86
2021/11/28 15:39:38;;;;;;;;;1.25;1.25;;;;;;;;5121846;28;12711;-82
2021/11/28 15:42:04;;;;;;;;;1.75;1.00;;;;;;;;5103143;28;12792;-83
2021/11/28 15:44:31;;;;;;;;;2.00;2.00;;;;;;;;5103159;28;10934;-85
2021/11/28 15:46:58;;;;;;;;;5.25;2.00;;;;;;;;5122711;28;12035;-82
2021/11/28 15:49:23;;;;;;;;;2.00;2.00;;;;;;;;5104155;28;11411;-84
2021/11/28 15:51:50;;;;;;;;;2.00;2.00;;;;;;;;5123438;28;11451;-84
2021/11/28 15:54:16;;;;;;;;;3.75;2.50;;;;;;;;5125431;28;8884;-83
2021/11/28 15:56:42;;;;;;;;;1.75;1.75;;;;;;;;5112170;28;14034;-84
2021/11/28 15:59:07;;;;;;;;;4.25;2.00;;;;;;;;5139422;28;12462;-82
2021/11/28 16:01:34;;;;;;;;;1.00;1.00;;;;;;;;5135926;28;11555;-85
2021/11/28 16:04:00;;;;;;;;;1.00;1.00;;;;;;;;5129268;28;11114;-83
2021/11/28 16:06:26;;;;;;;;;2.00;2.00;;;;;;;;5121915;28;11428;-83
2021/11/28 16:08:52;;;;;;;;;1.25;1.25;;;;;;;;5121474;28;8965;-85
2021/11/28 16:11:19;;;;;;;;;0.50;0.50;;;;;;;;5120700;28;11377;-85
2021/11/28 16:13:45;;;;;;;;;0.00;0.00;;;;;;;;5102700;28;13569;-85
2021/11/28 16:16:11;;;;;;;;;1.33;0.33;;;;;;;;5121282;27;12241;-83
2021/11/28 16:18:36;;;;;;;;;0.00;0.00;;;;;;;;5124560;28;11344;-84
2021/11/28 16:21:02;;;;;;;;;0.00;0.00;;;;;;;;5124349;28;11292;-83
2021/11/28 16:23:29;;;;;;;;;0.00;0.00;;;;;;;;5123985;28;8773;-84
2021/11/28 16:25:54;;;;;;;;;0.00;0.00;;;;;;;;5124781;28;8927;-83
2021/11/28 16:28:20;;;;;;;;;0.00;0.00;;;;;;;;5106207;28;12102;-83
2021/11/28 16:30:48;;;;;;;;;0.00;0.00;;;;;;;;5124719;28;8781;-82
2021/11/28 16:33:14;;;;;;;;;0.00;0.00;;;;;;;;5125097;28;8781;-84
2021/11/28 16:35:41;;;;;;;;;0.00;0.00;;;;;;;;5125159;28;11407;-86
2021/11/28 16:38:07;;;;;;;;;1.00;0.00;;;;;;;;5106822;28;12141;-86
2021/11/28 16:40:34;;;;;;;;;0.00;0.00;;;;;;;;5125128;28;11384;-84
2021/11/28 16:42:59;;;;;;;;;1.50;0.50;;;;;;;;5125028;28;11407;-85
2021/11/28 16:45:25;;;;;;;;;1.00;1.00;;;;;;;;5123971;28;11808;-84
2021/11/28 16:47:52;;;;;;;;;0.00;0.00;;;;;;;;5126661;28;10955;-84
2021/11/28 16:50:18;;;;;;;;;0.00;0.00;;;;;;;;5126005;28;11410;-85
2021/11/28 16:52:44;;;;;;;;;1.00;1.00;;;;;;;;5125640;28;11404;-83
2021/11/28 16:55:13;;;;;;;;;2.67;1.00;;;;;;;;5124645;28;8792;-85
2021/11/28 16:57:38;;;;;;;;;2.00;1.00;;;;;;;;5123849;28;12182;-84
2021/11/28 17:00:04;;;;;;;;;2.00;2.00;;;;;;;;5124466;28;8808;-84
2021/11/28 17:02:31;;;;;;;;;2.67;2.00;;;;;;;;5105649;28;10085;-84
2021/11/28 17:04:57;;;;;;;;;2.00;0.67;;;;;;;;5123898;28;8814;-85
2021/11/28 17:07:23;;;;;;;;;2.00;2.00;;;;;;;;5123538;28;10287;-85
2021/11/28 17:09:49;;;;;;;;;1.00;1.00;;;;;;;;5124513;28;8782;-85
2021/11/28 17:12:14;;;;;;;;;2.67;2.67;;;;;;;;5124304;28;8792;-83
2021/11/28 17:14:40;;;;;;;;;4.33;4.00;;;;;;;;5124785;28;12621;-83
2021/11/28 17:17:06;;;;;;;;;5.00;5.00;;;;;;;;5105469;28;11919;-83
2021/11/28 17:19:32;;;;;;;;;7.00;5.00;;;;;;;;5123076;28;10273;-83
2021/11/28 17:21:58;;;;;;;;;4.33;4.00;;;;;;;;5122894;28;8865;-83
2021/11/28 17:24:24;;;;;;;;;7.00;2.67;;;;;;;;5123624;28;10463;-83
2021/11/28 17:26:50;;;;;;;;;5.00;4.00;;;;;;;;5123300;27;13136;-83
2021/11/28 17:29:16;;;;;;;;;4.00;2.00;;;;;;;;5123070;28;11858;-90
2021/11/28 17:31:42;;;;;;;;;2.00;0.67;;;;;;;;5124669;28;10143;-79
2021/11/28 17:34:07;;;;;;;;;1.00;1.00;;;;;;;;5104339;28;13748;-76
2021/11/28 17:36:32;;;;;;;;;2.00;2.00;;;;;;;;5119145;28;11456;-78
2021/11/28 17:38:58;;;;;;;;;4.00;4.00;;;;;;;;5122677;28;8815;-77
2021/11/28 17:41:23;;;;;;;;;2.67;2.00;;;;;;;;5103836;28;11099;-78
2021/11/28 17:43:49;;;;;;;;;3.33;2.67;;;;;;;;5117180;28;10270;-76
2021/11/28 17:46:14;;;;;;;;;4.00;4.00;;;;;;;;5101730;28;11570;-78
2021/11/28 17:48:40;;;;;;;;;3.33;3.33;;;;;;;;5102443;28;11411;-77
2021/11/28 17:51:06;;;;;;;;;2.00;2.00;;;;;;;;5102111;28;11547;-78
2021/11/28 17:53:31;;;;;;;;;3.33;3.33;;;;;;;;5102362;28;11292;-79
2021/11/28 17:55:56;;;;;;;;;3.33;2.00;;;;;;;;5101924;28;11300;-79
2021/11/28 17:58:22;;;;;;;;;2.33;1.67;;;;;;;;5102623;28;8853;-78
2021/11/28 18:00:47;;;;;;;;;7.00;2.00;;;;;;;;5102192;28;11347;-77
2021/11/28 18:03:12;;;;;;;;;5.00;5.00;;;;;;;;5101753;28;11546;-76
2021/11/28 18:05:40;;;;;;;;;4.00;4.00;;;;;;;;5102093;28;9565;-78
2021/11/28 18:08:06;;;;;;;;;4.33;4.00;;;;;;;;5083065;28;10916;-78
2021/11/28 18:10:31;;;;;;;;;4.00;4.00;;;;;;;;5102118;28;8953;-78
2021/11/28 18:12:56;;;;;;;;;1.67;1.67;;;;;;;;5113071;28;8812;-80
2021/11/28 18:15:22;;;;;;;;;4.00;4.00;;;;;;;;5120848;28;11270;-82
2021/11/28 18:17:47;;;;;;;;;2.00;2.00;;;;;;;;5120631;28;11638;-77
2021/11/28 18:20:14;;;;;;;;;4.00;4.00;;;;;;;;5120535;28;9542;-78
2021/11/28 18:22:40;;;;;;;;;0.00;0.00;;;;;;;;5120732;28;9039;-77
2021/11/28 18:25:06;;;;;;;;;1.67;1.67;;;;;;;;5120330;28;11431;-79
2021/11/28 18:27:31;;;;;;;;;1.67;1.67;;;;;;;;5119908;28;11488;-77
2021/11/28 18:29:56;;;;;;;;;1.00;1.00;;;;;;;;5120462;28;8785;-77
2021/11/28 18:32:22;;;;;;;;;1.00;0.67;;;;;;;;5119998;28;8805;-78
2021/11/28 18:34:47;;;;;;;;;1.00;1.00;;;;;;;;5120349;28;8848;-77
2021/11/28 18:37:13;;;;;;;;;0.00;0.00;;;;;;;;5121706;28;9263;-76
2021/11/28 18:39:38;;;;;;;;;1.00;1.00;;;;;;;;5119117;28;8899;-73
2021/11/28 18:42:05;;;;;;;;;2.00;2.00;;;;;;;;5099918;28;10485;-83
2021/11/28 18:44:31;;;;;;;;;4.00;2.00;;;;;;;;5115354;28;8883;-79
2021/11/28 18:46:57;;;;;;;;;2.00;2.00;;;;;;;;5120028;28;11547;-78
2021/11/28 18:49:22;;;;;;;;;2.00;1.00;;;;;;;;5120654;28;8792;-76
2021/11/28 18:51:48;;;;;;;;;4.00;4.00;;;;;;;;5119946;28;8804;-77
2021/11/28 18:54:13;;;;;;;;;1.00;1.00;;;;;;;;5119623;28;8804;-78
2021/11/28 18:56:38;;;;;;;;;2.00;2.00;;;;;;;;5119856;28;8928;-75
2021/11/28 18:59:04;;;;;;;;;2.00;2.00;;;;;;;;5121083;28;8908;-78
2021/11/28 19:01:29;;;;;;;;;4.00;4.00;;;;;;;;5121837;28;8877;-76
2021/11/28 19:03:55;;;;;;;;;2.00;2.00;;;;;;;;5121125;28;8856;-77
2021/11/28 19:06:20;;;;;;;;;2.67;2.67;;;;;;;;5102852;28;10678;-79
2021/11/28 19:08:46;;;;;;;;;3.33;3.33;;;;;;;;5121448;28;8788;-79
2021/11/28 19:11:12;;;;;;;;;5.67;2.00;;;;;;;;5119707;28;11987;-76
2021/11/28 19:13:40;;;;;;;;;4.33;4.33;;;;;;;;5102130;28;13446;-74
2021/11/28 19:16:05;;;;;;;;;5.00;5.00;;;;;;;;5113495;28;11906;-73
2021/11/28 19:18:30;;;;;;;;;8.67;7.67;;;;;;;;5108897;28;11462;-73
2021/11/28 19:20:56;;;;;;;;;8.00;7.00;;;;;;;;5119066;28;11351;-73
2021/11/28 19:23:21;;;;;;;;;8.00;8.00;;;;;;;;5119657;28;8808;-69
2021/11/28 19:25:46;;;;;;;;;11.00;11.00;;;;;;;;5119551;28;8800;-68
2021/11/28 19:28:12;;;;;;;;;16.67;12.00;;;;;;;;5119432;28;23843;-70
2021/11/28 19:30:38;;;;;;;;;16.33;12.00;;;;;;;;5119750;28;10577;-70
2021/11/28 19:33:04;;;;;;;;;9.33;9.33;;;;;;;;5120451;28;8922;-70
2021/11/28 19:35:30;;;;;;;;;14.00;12.67;;;;;;;;5119619;28;23494;-70
2021/11/28 19:37:55;;;;;;;;;14.67;11.00;;;;;;;;5119205;28;24090;-69
2021/11/28 19:40:20;;;;;;;;;10.67;10.67;;;;;;;;5118786;28;10553;-70
2021/11/28 19:42:46;;;;;;;;;11.33;9.67;;;;;;;;5118296;28;11586;-69
2021/11/28 19:45:12;;;;;;;;;21.33;15.00;;;;;;;;5117943;28;22787;-70
2021/11/28 19:47:38;;;;;;;;;17.33;17.33;;;;;;;;5119403;28;22657;-77
2021/11/28 19:50:05;;;;;;;;;17.00;14.33;;;;;;;;5101609;28;15408;-75
2021/11/28 19:52:31;;;;;;;;;14.00;14.00;;;;;;;;5120756;28;10275;-82
2021/11/28 19:54:56;;;;;;;;;17.33;14.00;;;;;;;;5119408;28;11464;-74
2021/11/28 19:57:22;;;;;;;;;14.33;13.00;;;;;;;;5101796;28;9377;-75
2021/11/28 19:59:47;;;;;;;;;11.00;11.00;;;;;;;;5120021;28;8781;-75
2021/11/28 20:02:12;;;;;;;;;16.33;14.33;;;;;;;;5120219;28;10486;-74
2021/11/28 20:04:38;;;;;;;;;14.00;13.67;;;;;;;;5119887;28;11585;-74
2021/11/28 20:07:03;;;;;;;;;15.00;15.00;;;;;;;;5119791;28;12652;-75
2021/11/28 20:09:29;;;;;;;;;13.67;13.33;;;;;;;;5120217;28;11552;-72
2021/11/28 20:11:54;;;;;;;;;17.00;13.00;;;;;;;;5118670;28;11359;-72
2021/11/28 20:14:20;;;;;;;;;19.67;19.33;;;;;;;;5118121;28;11366;-72
2021/11/28 20:16:53;;;;;;;;;19.00;16.00;;;;;;;;5118355;28;11387;-73
2021/11/28 20:19:19;;;;;;;;;19.33;16.00;;;;;;;;5118041;28;10982;-73
2021/11/28 20:21:44;;;;;;;;;21.00;17.33;;;;;;;;5118568;28;8907;-72
2021/11/28 20:24:09;;;;;;;;;16.33;14.00;;;;;;;;5117575;28;13416;-73
2021/11/28 20:26:35;;;;;;;;;14.00;14.00;;;;;;;;5117999;28;13693;-74
2021/11/28 20:29:01;;;;;;;;;16.33;15.00;;;;;;;;5118210;28;8860;-72
2021/11/28 20:31:27;;;;;;;;;20.33;18.00;;;;;;;;5118667;28;10374;-73
2021/11/28 20:33:53;;;;;;;;;17.33;15.00;;;;;;;;5118399;28;10417;-74
2021/11/28 20:36:19;;;;;;;;;14.00;13.67;;;;;;;;5117852;28;10712;-72
2021/11/28 20:38:44;;;;;;;;;10.33;10.33;;;;;;;;5118613;28;11363;-72
2021/11/28 20:41:09;;;;;;;;;13.00;13.00;;;;;;;;5118124;28;11964;-71
2021/11/28 20:43:37;;;;;;;;;16.67;15.00;;;;;;;;5117991;28;11709;-73
2021/11/28 20:46:02;;;;;;;;;14.33;13.33;;;;;;;;5118139;28;10478;-74
2021/11/28 20:48:28;;;;;;;;;14.33;13.67;;;;;;;;5116744;28;11380;-73
2021/11/28 20:50:53;;;;;;;;;14.00;14.00;;;;;;;;5119912;28;9487;-72
2021/11/28 20:53:18;;;;;;;;;20.00;16.00;;;;;;;;5120028;28;10358;-71
2021/11/28 20:55:44;;;;;;;;;15.00;14.00;;;;;;;;5117625;28;10638;-72
2021/11/28 20:58:09;;;;;;;;;14.00;14.00;;;;;;;;5118309;28;11900;-72
2021/11/28 21:00:39;;;;;;;;;15.67;13.33;;;;;;;;5101379;28;8822;-71
2021/11/28 21:03:05;;;;;;;;;21.67;14.33;;;;;;;;5120339;27;12074;-71
2021/11/28 21:05:30;;;;;;;;;17.33;14.00;;;;;;;;5123095;28;10683;-71
2021/11/28 21:07:57;;;;;;;;;15.67;14.33;;;;;;;;5122861;28;13700;-71
2021/11/28 21:10:22;;;;;;;;;11.67;11.00;;;;;;;;5122722;28;12791;-71
2021/11/28 21:12:48;;;;;;;;;12.00;11.00;;;;;;;;5122628;28;11527;-72
2021/11/28 21:15:14;;;;;;;;;16.33;13.33;;;;;;;;5122215;28;8928;-72
2021/11/28 21:17:45;;;;;;;;;14.33;13.00;;;;;;;;5123133;28;11628;-72
2021/11/28 21:20:11;;;;;;;;;10.33;10.33;;;;;;;;5122277;28;11548;-72
2021/11/28 21:22:36;;;;;;;;;14.33;10.33;;;;;;;;5122682;28;12512;-72
2021/11/28 21:25:02;;;;;;;;;14.00;12.33;;;;;;;;5121987;28;8825;-71
2021/11/28 21:27:28;;;;;;;;;11.00;10.00;;;;;;;;5121734;28;10727;-72
2021/11/28 21:29:53;;;;;;;;;14.00;13.00;;;;;;;;5104106;28;11676;-72
2021/11/28 21:32:18;;;;;;;;;12.33;10.67;;;;;;;;5122673;28;9513;-72
2021/11/28 21:34:44;;;;;;;;;11.00;10.00;;;;;;;;5122762;28;11888;-73
2021/11/28 21:37:09;;;;;;;;;13.00;11.00;;;;;;;;5115173;28;11391;-72
2021/11/28 21:39:35;;;;;;;;;11.33;10.33;;;;;;;;5102093;28;8874;-72
2021/11/28 21:42:01;;;;;;;;;18.33;13.33;;;;;;;;5101575;28;11908;-72
2021/11/28 21:44:27;;;;;;;;;14.33;11.33;;;;;;;;5101662;28;8796;-72
2021/11/28 21:46:52;;;;;;;;;13.00;13.00;;;;;;;;5101261;28;9534;-73
2021/11/28 21:49:17;;;;;;;;;13.67;11.00;;;;;;;;5119230;28;11404;-72
2021/11/28 21:51:43;;;;;;;;;15.33;13.33;;;;;;;;5117486;28;11924;-72
2021/11/28 21:54:08;;;;;;;;;17.67;17.00;;;;;;;;5112243;28;11488;-72
2021/11/28 21:56:34;;;;;;;;;14.33;12.33;;;;;;;;5104080;28;11519;-72
2021/11/28 21:58:59;;;;;;;;;11.00;11.00;;;;;;;;5110635;28;11593;-72
2021/11/28 22:01:25;;;;;;;;;13.33;12.67;;;;;;;;5112984;28;12079;-73
2021/11/28 22:03:50;;;;;;;;;14.33;13.67;;;;;;;;5101869;28;11406;-74
2021/11/28 22:06:15;;;;;;;;;14.00;10.67;;;;;;;;5101353;28;8814;-73
2021/11/28 22:08:40;;;;;;;;;13.00;10.33;;;;;;;;5101781;28;9593;-73
2021/11/28 22:11:06;;;;;;;;;9.33;9.33;;;;;;;;5101579;28;13108;-78
2021/11/28 22:13:32;;;;;;;;;12.00;10.00;;;;;;;;5100795;28;23428;-75
2021/11/28 22:15:57;;;;;;;;;14.00;13.00;;;;;;;;5100803;28;24243;-73
2021/11/28 22:18:22;;;;;;;;;7.00;7.00;;;;;;;;5101225;28;8802;-74
2021/11/28 22:20:48;;;;;;;;;9.67;9.67;;;;;;;;5101247;28;22271;-73
2021/11/28 22:23:13;;;;;;;;;10.00;10.00;;;;;;;;5100871;28;11465;-73
2021/11/28 22:25:39;;;;;;;;;10.67;10.67;;;;;;;;5099765;28;22523;-74
2021/11/28 22:28:06;;;;;;;;;9.67;7.67;;;;;;;;5100762;28;10125;-72
2021/11/28 22:30:32;;;;;;;;;9.00;9.00;;;;;;;;5103288;28;22422;-73
2021/11/28 22:32:58;;;;;;;;;11.67;11.67;;;;;;;;5112852;28;11672;-71
2021/11/28 22:35:25;;;;;;;;;14.00;10.00;;;;;;;;5110224;28;23325;-72
2021/11/28 22:37:50;;;;;;;;;14.33;9.33;;;;;;;;5103070;28;11627;-73